createdAt,value
2022-09-02T00:00:19.727Z,61.37
2022-09-02T00:01:18.747Z,61.58
2022-09-02T00:02:18.788Z,61.68
2022-09-02T00:03:18.862Z,61.47
2022-09-02T00:04:18.694Z,61.17
2022-09-02T00:05:18.675Z,61.51
2022-09-02T00:06:18.653Z,61.20
2022-09-02T00:07:18.653Z,61.10
2022-09-02T00:08:18.622Z,61.71
2022-09-02T00:09:18.711Z,61.30
2022-09-02T00:10:18.606Z,61.51
2022-09-02T00:11:18.591Z,61.60
2022-09-02T00:12:18.572Z,61.40
2022-09-02T00:13:18.634Z,61.40
2022-09-02T00:14:18.564Z,61.51
2022-09-02T00:15:18.543Z,61.60
2022-09-02T00:16:18.583Z,61.30
2022-09-02T00:17:18.512Z,61.40
2022-09-02T00:18:18.496Z,61.71
2022-09-02T00:19:18.510Z,61.80
2022-09-02T00:20:18.482Z,61.60
2022-09-02T00:21:18.460Z,61.91
2022-09-02T00:22:18.440Z,61.91
2022-09-02T00:23:18.519Z,61.63
2022-09-02T00:24:18.430Z,62.01
2022-09-02T00:25:18.410Z,62.65
2022-09-02T00:26:18.409Z,61.83
2022-09-02T00:27:18.410Z,61.94
2022-09-02T00:28:18.381Z,62.24
2022-09-02T00:29:18.369Z,61.94
2022-09-02T00:30:18.370Z,62.34
2022-09-02T00:31:18.364Z,62.34
2022-09-02T00:32:18.312Z,62.24
2022-09-02T00:33:18.309Z,62.45
2022-09-02T00:34:18.291Z,62.45
2022-09-02T00:35:18.290Z,62.14
2022-09-02T00:36:18.259Z,62.24
2022-09-02T00:37:18.259Z,62.45
2022-09-02T00:38:18.237Z,62.54
2022-09-02T00:39:18.219Z,62.65
2022-09-02T00:40:18.426Z,62.65
2022-09-02T00:41:18.208Z,62.75
2022-09-02T00:42:18.199Z,62.68
2022-09-02T00:43:18.188Z,62.48
2022-09-02T00:44:18.157Z,62.48
2022-09-02T00:45:18.153Z,62.68
2022-09-02T00:46:18.128Z,62.57
2022-09-02T00:47:18.107Z,62.68
2022-09-02T00:48:18.107Z,62.68
2022-09-02T00:49:18.098Z,62.57
2022-09-02T00:50:18.078Z,62.68
2022-09-02T00:51:18.088Z,62.57
2022-09-02T00:52:18.046Z,62.88
2022-09-02T00:53:18.078Z,63.08
2022-09-02T00:54:18.016Z,63.08
2022-09-02T00:55:18.021Z,62.88
2022-09-02T00:56:18.032Z,62.98
2022-09-02T00:57:17.976Z,63.18
2022-09-02T00:58:17.957Z,63.49
2022-09-02T00:59:17.957Z,63.39
2022-09-02T01:00:17.935Z,63.08
2022-09-02T01:01:18.048Z,63.29
2022-09-02T01:02:18.033Z,63.39
2022-09-02T01:03:17.953Z,63.32
2022-09-02T01:04:17.895Z,63.11
2022-09-02T01:05:17.889Z,63.52
2022-09-02T01:06:17.876Z,63.82
2022-09-02T01:07:17.892Z,63.62
2022-09-02T01:08:17.856Z,63.32
2022-09-02T01:09:17.844Z,63.52
2022-09-02T01:10:17.816Z,63.72
2022-09-02T01:11:17.846Z,63.62
2022-09-02T01:12:17.806Z,63.62
2022-09-02T01:13:17.794Z,63.62
2022-09-02T01:14:17.754Z,63.72
2022-09-02T01:15:17.757Z,63.92
2022-09-02T01:16:17.769Z,63.82
2022-09-02T01:17:17.734Z,63.92
2022-09-02T01:18:17.712Z,63.82
2022-09-02T01:19:17.694Z,63.82
2022-09-02T01:20:17.696Z,63.82
2022-09-02T01:21:17.676Z,63.82
2022-09-02T01:22:17.667Z,63.72
2022-09-02T01:23:17.735Z,63.92
2022-09-02T01:24:17.625Z,64.03
2022-09-02T01:25:17.603Z,63.92
2022-09-02T01:26:17.613Z,64.03
2022-09-02T01:27:17.594Z,64.13
2022-09-02T01:28:17.584Z,64.26
2022-09-02T01:29:17.563Z,64.15
2022-09-02T01:30:17.543Z,64.15
2022-09-02T01:31:17.567Z,64.36
2022-09-02T01:32:17.511Z,64.15
2022-09-02T01:33:17.601Z,64.67
2022-09-02T01:34:17.498Z,64.76
2022-09-02T01:35:17.481Z,64.46
2022-09-02T01:36:17.452Z,64.67
2022-09-02T01:37:17.463Z,64.67
2022-09-02T01:38:17.441Z,64.87
2022-09-02T01:39:17.440Z,64.76
2022-09-02T01:40:17.462Z,64.56
2022-09-02T01:41:17.392Z,64.76
2022-09-02T01:42:17.383Z,64.76
2022-09-02T01:43:17.421Z,64.87
2022-09-02T01:44:17.370Z,64.87
2022-09-02T01:45:17.343Z,64.87
2022-09-02T01:46:17.348Z,64.90
2022-09-02T01:47:17.324Z,65.10
2022-09-02T01:48:21.429Z,65.41
2022-09-02T01:49:17.302Z,65.51
2022-09-02T01:50:17.271Z,65.61
2022-09-02T01:51:17.270Z,65.30
2022-09-02T01:52:17.243Z,65.30
2022-09-02T01:53:17.238Z,65.10
2022-09-02T01:54:17.236Z,65.41
2022-09-02T01:55:17.201Z,65.10
2022-09-02T01:56:17.199Z,65.20
2022-09-02T01:57:17.193Z,65.30
2022-09-02T01:58:17.158Z,65.51
2022-09-02T01:59:17.151Z,65.61
2022-09-02T02:00:17.152Z,65.91
2022-09-02T02:01:17.162Z,65.71
2022-09-02T02:02:17.150Z,65.61
2022-09-02T02:03:17.874Z,65.71
2022-09-02T02:04:17.085Z,65.51
2022-09-02T02:05:17.099Z,65.84
2022-09-02T02:06:17.075Z,65.84
2022-09-02T02:07:17.057Z,65.84
2022-09-02T02:08:17.038Z,66.15
2022-09-02T02:09:17.019Z,65.74
2022-09-02T02:10:17.035Z,65.84
2022-09-02T02:11:16.998Z,65.94
2022-09-02T02:12:16.985Z,66.35
2022-09-02T02:13:16.977Z,65.74
2022-09-02T02:14:16.955Z,65.64
2022-09-02T02:15:16.947Z,65.74
2022-09-02T02:16:16.995Z,66.05
2022-09-02T02:17:16.917Z,65.94
2022-09-02T02:18:16.897Z,66.35
2022-09-02T02:19:16.894Z,66.25
2022-09-02T02:20:16.871Z,66.46
2022-09-02T02:21:16.874Z,66.86
2022-09-02T02:22:16.846Z,66.55
2022-09-02T02:23:16.845Z,66.38
2022-09-02T02:24:16.816Z,66.28
2022-09-02T02:25:16.819Z,66.38
2022-09-02T02:26:16.816Z,66.49
2022-09-02T02:27:16.778Z,66.38
2022-09-02T02:28:16.766Z,66.38
2022-09-02T02:29:16.759Z,66.38
2022-09-02T02:30:16.736Z,66.58
2022-09-02T02:31:16.796Z,66.28
2022-09-02T02:32:16.735Z,66.49
2022-09-02T02:33:16.703Z,66.28
2022-09-02T02:34:16.693Z,66.58
2022-09-02T02:35:16.674Z,66.69
2022-09-02T02:36:16.665Z,66.69
2022-09-02T02:37:16.664Z,66.69
2022-09-02T02:38:16.644Z,66.79
2022-09-02T02:39:16.636Z,66.99
2022-09-02T02:40:16.658Z,66.79
2022-09-02T02:41:16.602Z,66.99
2022-09-02T02:42:16.603Z,67.10
2022-09-02T02:43:16.573Z,67.10
2022-09-02T02:44:16.565Z,67.13
2022-09-02T02:45:16.544Z,66.99
2022-09-02T02:46:16.604Z,66.92
2022-09-02T02:47:16.541Z,66.92
2022-09-02T02:48:16.513Z,67.13
2022-09-02T02:49:16.492Z,67.43
2022-09-02T02:50:16.482Z,67.33
2022-09-02T02:51:16.472Z,67.13
2022-09-02T02:52:16.452Z,67.13
2022-09-02T02:53:16.462Z,67.02
2022-09-02T02:54:16.442Z,67.22
2022-09-02T02:55:17.151Z,67.13
2022-09-02T02:56:16.411Z,66.92
2022-09-02T02:57:16.392Z,67.33
2022-09-02T02:58:16.535Z,67.13
2022-09-02T02:59:16.372Z,67.02
2022-09-02T03:00:16.364Z,67.02
2022-09-02T03:01:16.385Z,67.02
2022-09-02T03:02:16.394Z,67.02
2022-09-02T03:03:16.333Z,67.13
2022-09-02T03:04:16.308Z,67.22
2022-09-02T03:05:16.301Z,67.13
2022-09-02T03:06:16.281Z,67.43
2022-09-02T03:07:17.260Z,67.53
2022-09-02T03:08:16.264Z,67.63
2022-09-02T03:09:16.249Z,67.94
2022-09-02T03:10:16.230Z,67.43
2022-09-02T03:11:16.219Z,67.22
2022-09-02T03:12:16.209Z,67.83
2022-09-02T03:13:16.193Z,67.83
2022-09-02T03:14:16.195Z,67.43
2022-09-02T03:15:16.159Z,67.33
2022-09-02T03:16:16.217Z,67.63
2022-09-02T03:17:16.140Z,67.74
2022-09-02T03:18:16.130Z,67.66
2022-09-02T03:19:16.120Z,67.57
2022-09-02T03:20:16.106Z,67.87
2022-09-02T03:21:16.105Z,67.57
2022-09-02T03:22:16.077Z,67.57
2022-09-02T03:23:16.069Z,67.57
2022-09-02T03:24:16.080Z,67.87
2022-09-02T03:25:16.037Z,67.57
2022-09-02T03:26:16.026Z,67.66
2022-09-02T03:27:16.013Z,67.97
2022-09-02T03:28:16.005Z,67.57
2022-09-02T03:29:15.987Z,67.57
2022-09-02T03:30:16.000Z,67.87
2022-09-02T03:31:15.998Z,68.07
2022-09-02T03:32:15.954Z,67.77
2022-09-02T03:33:15.938Z,67.46
2022-09-02T03:34:15.927Z,67.87
2022-09-02T03:35:15.918Z,67.77
2022-09-02T03:36:15.899Z,67.66
2022-09-02T03:37:15.885Z,67.97
2022-09-02T03:38:15.886Z,67.97
2022-09-02T03:39:15.855Z,67.77
2022-09-02T03:40:15.906Z,67.87
2022-09-02T03:41:15.837Z,68.07
2022-09-02T03:42:19.663Z,67.87
2022-09-02T03:43:15.814Z,67.66
2022-09-02T03:44:15.804Z,67.57
2022-09-02T03:45:15.808Z,67.46
2022-09-02T03:46:15.814Z,67.57
2022-09-02T03:47:15.756Z,67.66
2022-09-02T03:48:15.744Z,67.66
2022-09-02T03:49:15.735Z,67.66
2022-09-02T03:50:15.748Z,67.77
2022-09-02T03:51:15.713Z,67.57
2022-09-02T03:52:15.714Z,67.57
2022-09-02T03:53:19.737Z,67.57
2022-09-02T03:54:15.672Z,67.57
2022-09-02T03:55:15.655Z,67.66
2022-09-02T03:56:15.654Z,68.27
2022-09-02T03:57:15.646Z,68.58
2022-09-02T03:58:15.622Z,68.48
2022-09-02T03:59:15.605Z,68.27
2022-09-02T04:00:15.602Z,68.31
2022-09-02T04:01:15.650Z,67.77
2022-09-02T04:02:15.692Z,68.01
2022-09-02T04:03:15.663Z,68.21
2022-09-02T04:04:17.774Z,68.01
2022-09-02T04:05:16.535Z,68.01
2022-09-02T04:06:15.534Z,67.90
2022-09-02T04:07:15.503Z,67.90
2022-09-02T04:08:15.492Z,68.01
2022-09-02T04:09:15.481Z,67.80
2022-09-02T04:10:15.472Z,68.21
2022-09-02T04:11:15.470Z,68.10
2022-09-02T04:12:15.441Z,68.01
2022-09-02T04:13:15.430Z,68.10
2022-09-02T04:14:15.421Z,68.31
2022-09-02T04:15:15.411Z,68.10
2022-09-02T04:16:15.474Z,67.80
2022-09-02T04:17:15.379Z,67.69
2022-09-02T04:18:15.371Z,67.90
2022-09-02T04:19:15.361Z,68.21
2022-09-02T04:20:15.352Z,68.10
2022-09-02T04:21:15.329Z,68.01
2022-09-02T04:22:15.342Z,68.01
2022-09-02T04:23:15.307Z,67.69
2022-09-02T04:24:15.290Z,67.80
2022-09-02T04:25:15.279Z,67.80
2022-09-02T04:26:15.282Z,68.31
2022-09-02T04:27:15.271Z,68.10
2022-09-02T04:28:15.242Z,67.90
2022-09-02T04:29:15.231Z,67.80
2022-09-02T04:30:15.227Z,67.80
2022-09-02T04:31:15.223Z,67.60
2022-09-02T04:32:15.219Z,67.60
2022-09-02T04:33:15.180Z,67.60
2022-09-02T04:34:15.172Z,67.80
2022-09-02T04:35:15.159Z,67.69
2022-09-02T04:36:15.151Z,67.80
2022-09-02T04:37:15.130Z,67.80
2022-09-02T04:38:15.138Z,67.60
2022-09-02T04:39:15.106Z,67.60
2022-09-02T04:40:15.141Z,67.69
2022-09-02T04:41:15.086Z,67.49
2022-09-02T04:42:15.077Z,67.49
2022-09-02T04:43:15.079Z,67.60
2022-09-02T04:44:15.057Z,67.69
2022-09-02T04:45:15.037Z,67.69
2022-09-02T04:46:15.627Z,67.60
2022-09-02T04:47:15.010Z,67.69
2022-09-02T04:48:15.010Z,67.80
2022-09-02T04:49:14.984Z,67.80
2022-09-02T04:50:14.976Z,68.21
2022-09-02T04:51:14.963Z,68.31
2022-09-02T04:52:14.944Z,68.10
2022-09-02T04:53:14.970Z,68.10
2022-09-02T04:54:14.926Z,68.10
2022-09-02T04:55:14.951Z,68.21
2022-09-02T04:56:14.907Z,68.41
2022-09-02T04:57:14.876Z,68.31
2022-09-02T04:58:14.873Z,68.31
2022-09-02T04:59:14.856Z,68.21
2022-09-02T05:00:14.857Z,68.51
2022-09-02T05:01:14.906Z,68.51
2022-09-02T05:02:14.954Z,68.71
2022-09-02T05:03:14.805Z,68.71
2022-09-02T05:04:14.804Z,68.51
2022-09-02T05:05:14.794Z,68.71
2022-09-02T05:06:14.763Z,69.12
2022-09-02T05:07:14.754Z,69.53
2022-09-02T05:08:14.754Z,69.53
2022-09-02T05:09:14.734Z,68.92
2022-09-02T05:10:14.721Z,69.02
2022-09-02T05:11:14.703Z,68.71
2022-09-02T05:12:14.697Z,68.68
2022-09-02T05:13:14.676Z,68.21
2022-09-02T05:14:14.683Z,68.07
2022-09-02T05:15:14.669Z,68.07
2022-09-02T05:16:14.721Z,67.87
2022-09-02T05:17:14.631Z,67.97
2022-09-02T05:18:14.623Z,68.27
2022-09-02T05:19:14.763Z,68.18
2022-09-02T05:20:14.605Z,68.27
2022-09-02T05:21:14.571Z,67.97
2022-09-02T05:22:14.564Z,68.18
2022-09-02T05:23:14.621Z,68.27
2022-09-02T05:24:14.535Z,68.88
2022-09-02T05:25:14.531Z,68.48
2022-09-02T05:26:14.512Z,68.07
2022-09-02T05:27:14.491Z,68.38
2022-09-02T05:28:14.482Z,68.48
2022-09-02T05:29:14.472Z,68.79
2022-09-02T05:30:14.481Z,68.58
2022-09-02T05:31:14.517Z,68.88
2022-09-02T05:32:14.437Z,68.35
2022-09-02T05:33:14.661Z,68.24
2022-09-02T05:34:14.411Z,68.14
2022-09-02T05:35:14.418Z,68.04
2022-09-02T05:36:14.377Z,68.24
2022-09-02T05:37:14.370Z,68.14
2022-09-02T05:38:14.348Z,68.14
2022-09-02T05:39:14.342Z,67.94
2022-09-02T05:40:14.796Z,68.04
2022-09-02T05:41:14.328Z,68.04
2022-09-02T05:42:14.306Z,67.83
2022-09-02T05:43:14.356Z,67.74
2022-09-02T05:44:14.270Z,68.04
2022-09-02T05:45:16.563Z,68.21
2022-09-02T05:46:14.333Z,68.21
2022-09-02T05:47:14.238Z,68.11
2022-09-02T05:48:14.226Z,68.41
2022-09-02T05:49:14.217Z,68.52
2022-09-02T05:50:14.315Z,67.80
2022-09-02T05:51:14.208Z,67.80
2022-09-02T05:52:14.166Z,67.60
2022-09-02T05:53:14.455Z,67.60
2022-09-02T05:54:14.156Z,67.10
2022-09-02T05:55:14.137Z,67.06
2022-09-02T05:56:14.131Z,66.86
2022-09-02T05:57:14.113Z,66.76
2022-09-02T05:58:14.096Z,67.27
2022-09-02T05:59:14.086Z,67.16
2022-09-02T06:00:17.807Z,66.96
2022-09-02T06:01:14.083Z,66.86
2022-09-02T06:02:14.190Z,66.86
2022-09-02T06:03:14.211Z,66.96
2022-09-02T06:04:14.018Z,67.27
2022-09-02T06:05:14.005Z,67.47
2022-09-02T06:06:14.004Z,66.66
2022-09-02T06:07:13.996Z,66.66
2022-09-02T06:08:13.964Z,67.06
2022-09-02T06:09:13.963Z,67.67
2022-09-02T06:10:13.935Z,67.67
2022-09-02T06:11:13.944Z,67.27
2022-09-02T06:12:13.923Z,66.55
2022-09-02T06:13:13.950Z,66.96
2022-09-02T06:14:13.883Z,67.27
2022-09-02T06:15:13.873Z,67.27
2022-09-02T06:16:13.944Z,67.57
2022-09-02T06:17:13.845Z,66.96
2022-09-02T06:18:14.317Z,67.06
2022-09-02T06:19:17.746Z,67.06
2022-09-02T06:20:14.812Z,66.96
2022-09-02T06:21:13.795Z,66.76
2022-09-02T06:22:13.774Z,67.44
2022-09-02T06:23:13.802Z,66.93
2022-09-02T06:24:13.751Z,67.03
2022-09-02T06:25:13.740Z,66.63
2022-09-02T06:26:13.735Z,66.22
2022-09-02T06:27:13.712Z,66.22
2022-09-02T06:28:13.710Z,66.22
2022-09-02T06:29:13.685Z,66.63
2022-09-02T06:30:13.671Z,66.19
2022-09-02T06:31:13.732Z,66.90
2022-09-02T06:32:13.641Z,66.69
2022-09-02T06:33:13.667Z,65.99
2022-09-02T06:34:13.644Z,66.19
2022-09-02T06:35:13.630Z,65.68
2022-09-02T06:36:13.601Z,66.29
2022-09-02T06:37:13.580Z,66.60
2022-09-02T06:38:13.569Z,66.90
2022-09-02T06:39:13.568Z,66.46
2022-09-02T06:40:13.600Z,66.05
2022-09-02T06:41:13.557Z,66.16
2022-09-02T06:42:13.510Z,66.77
2022-09-02T06:43:13.569Z,66.16
2022-09-02T06:44:15.156Z,65.85
2022-09-02T06:45:13.480Z,65.85
2022-09-02T06:46:13.543Z,66.16
2022-09-02T06:47:13.463Z,66.13
2022-09-02T06:48:13.442Z,65.92
2022-09-02T06:49:13.426Z,65.31
2022-09-02T06:50:13.411Z,65.31
2022-09-02T06:51:13.408Z,65.82
2022-09-02T06:52:13.387Z,66.13
2022-09-02T06:53:13.377Z,66.80
2022-09-02T06:54:14.130Z,67.61
2022-09-02T06:55:13.375Z,67.61
2022-09-02T06:56:13.339Z,66.70
2022-09-02T06:57:13.327Z,66.77
2022-09-02T06:58:13.309Z,65.86
2022-09-02T06:59:13.298Z,65.45
2022-09-02T07:00:13.278Z,64.44
2022-09-02T07:01:13.321Z,63.83
2022-09-02T07:02:13.460Z,63.81
2022-09-02T07:03:13.465Z,64.82
2022-09-02T07:04:13.226Z,64.82
2022-09-02T07:05:13.226Z,64.01
2022-09-02T07:06:13.218Z,64.07
2022-09-02T07:07:13.206Z,64.07
2022-09-02T07:08:13.176Z,63.57
2022-09-02T07:09:13.178Z,63.67
2022-09-02T07:10:13.147Z,64.15
2022-09-02T07:11:13.155Z,63.75
2022-09-02T07:12:13.125Z,63.54
2022-09-02T07:13:13.115Z,62.43
2022-09-02T07:14:13.095Z,62.40
2022-09-02T07:15:13.086Z,63.01
2022-09-02T07:16:13.120Z,63.01
2022-09-02T07:17:14.126Z,63.10
2022-09-02T07:18:13.036Z,62.90
2022-09-02T07:19:17.271Z,62.57
2022-09-02T07:20:14.015Z,62.37
2022-09-02T07:21:13.037Z,62.67
2022-09-02T07:22:12.993Z,62.57
2022-09-02T07:23:14.044Z,62.57
2022-09-02T07:24:12.956Z,62.34
2022-09-02T07:25:12.943Z,61.63
2022-09-02T07:26:12.954Z,61.63
2022-09-02T07:27:12.914Z,62.54
2022-09-02T07:28:12.903Z,63.93
2022-09-02T07:29:12.893Z,61.60
2022-09-02T07:30:12.888Z,61.80
2022-09-02T07:31:12.906Z,62.18
2022-09-02T07:32:12.858Z,62.59
2022-09-02T07:33:12.842Z,61.35
2022-09-02T07:34:12.945Z,60.74
2022-09-02T07:35:12.812Z,61.04
2022-09-02T07:36:12.812Z,60.91
2022-09-02T07:37:12.781Z,60.81
2022-09-02T07:38:12.771Z,60.81
2022-09-02T07:39:12.761Z,60.31
2022-09-02T07:40:12.800Z,60.21
2022-09-02T07:41:12.741Z,60.68
2022-09-02T07:42:12.723Z,59.88
2022-09-02T07:43:12.702Z,59.88
2022-09-02T07:44:12.691Z,60.17
2022-09-02T07:45:12.680Z,60.17
2022-09-02T07:46:12.734Z,59.97
2022-09-02T07:47:12.662Z,60.55
2022-09-02T07:48:12.660Z,59.75
2022-09-02T07:49:12.630Z,60.05
2022-09-02T07:50:19.140Z,60.35
2022-09-02T07:51:13.609Z,60.25
2022-09-02T07:52:12.591Z,60.12
2022-09-02T07:53:12.580Z,59.92
2022-09-02T07:54:12.572Z,60.22
2022-09-02T07:55:14.894Z,60.32
2022-09-02T07:56:12.550Z,60.42
2022-09-02T07:57:12.520Z,60.72
2022-09-02T07:58:12.529Z,60.29
2022-09-02T07:59:12.498Z,60.39
2022-09-02T08:00:12.507Z,60.69
2022-09-02T08:01:12.605Z,60.89
2022-09-02T08:02:12.517Z,60.47
2022-09-02T08:03:12.450Z,59.06
2022-09-02T08:04:12.441Z,59.66
2022-09-02T08:05:12.429Z,58.73
2022-09-02T08:06:12.429Z,58.93
2022-09-02T08:07:12.391Z,58.73
2022-09-02T08:08:12.388Z,59.10
2022-09-02T08:09:12.369Z,58.20
2022-09-02T08:10:12.360Z,57.70
2022-09-02T08:11:12.359Z,57.29
2022-09-02T08:12:12.337Z,57.50
2022-09-02T08:13:12.317Z,58.77
2022-09-02T08:14:12.307Z,58.97
2022-09-02T08:15:12.296Z,56.26
2022-09-02T08:16:12.366Z,57.54
2022-09-02T08:17:12.276Z,58.04
2022-09-02T08:18:19.150Z,56.84
2022-09-02T08:19:13.241Z,57.41
2022-09-02T08:20:12.657Z,56.61
2022-09-02T08:21:12.235Z,56.01
2022-09-02T08:22:12.223Z,56.30
2022-09-02T08:23:19.511Z,56.01
2022-09-02T08:24:13.206Z,55.78
2022-09-02T08:25:12.655Z,56.08
2022-09-02T08:26:12.169Z,56.08
2022-09-02T08:27:12.136Z,55.18
2022-09-02T08:28:12.136Z,56.78
2022-09-02T08:29:12.120Z,55.65
2022-09-02T08:30:12.105Z,55.55
2022-09-02T08:31:12.827Z,55.55
2022-09-02T08:32:12.112Z,55.45
2022-09-02T08:33:12.068Z,54.55
2022-09-02T08:34:12.056Z,54.55
2022-09-02T08:35:12.046Z,55.25
2022-09-02T08:36:12.054Z,54.85
2022-09-02T08:37:12.017Z,54.77
2022-09-02T08:38:12.001Z,55.18
2022-09-02T08:39:12.018Z,54.47
2022-09-02T08:40:12.023Z,54.95
2022-09-02T08:41:11.978Z,55.35
2022-09-02T08:42:11.960Z,54.15
2022-09-02T08:43:11.954Z,54.55
2022-09-02T08:44:11.925Z,55.45
2022-09-02T08:45:11.916Z,54.95
2022-09-02T08:46:12.017Z,54.93
2022-09-02T08:47:11.885Z,54.22
2022-09-02T08:48:11.866Z,54.62
2022-09-02T08:49:11.866Z,55.22
2022-09-02T08:50:11.864Z,54.93
2022-09-02T08:51:11.846Z,55.93
2022-09-02T08:52:15.863Z,54.43
2022-09-02T08:53:12.807Z,53.92
2022-09-02T08:54:12.163Z,54.02
2022-09-02T08:55:11.785Z,54.52
2022-09-02T08:56:11.775Z,54.72
2022-09-02T08:57:11.764Z,54.93
2022-09-02T08:58:11.745Z,54.62
2022-09-02T08:59:11.734Z,54.52
2022-09-02T09:00:11.717Z,54.12
2022-09-02T09:01:11.781Z,54.62
2022-09-02T09:02:11.701Z,54.60
2022-09-02T09:03:12.676Z,54.00
2022-09-02T09:04:11.664Z,54.90
2022-09-02T09:05:11.643Z,53.80
2022-09-02T09:06:11.643Z,54.90
2022-09-02T09:07:11.625Z,54.39
2022-09-02T09:08:14.557Z,53.77
2022-09-02T09:09:11.609Z,54.07
2022-09-02T09:10:11.584Z,53.57
2022-09-02T09:11:11.600Z,54.07
2022-09-02T09:12:11.567Z,53.67
2022-09-02T09:13:11.561Z,54.55
2022-09-02T09:14:11.533Z,52.64
2022-09-02T09:15:11.532Z,53.24
2022-09-02T09:16:11.601Z,53.42
2022-09-02T09:17:11.507Z,53.32
2022-09-02T09:18:11.483Z,52.00
2022-09-02T09:19:11.476Z,51.84
2022-09-02T09:20:11.462Z,51.32
2022-09-02T09:21:11.562Z,51.89
2022-09-02T09:22:11.431Z,49.90
2022-09-02T09:23:11.423Z,49.68
2022-09-02T09:24:11.393Z,49.35
2022-09-02T09:25:11.391Z,49.93
2022-09-02T09:26:11.395Z,48.43
2022-09-02T09:27:11.363Z,48.63
2022-09-02T09:28:11.365Z,48.43
2022-09-02T09:29:11.342Z,48.43
2022-09-02T09:30:15.017Z,48.35
2022-09-02T09:31:11.386Z,49.75
2022-09-02T09:32:11.298Z,48.85
2022-09-02T09:33:11.293Z,49.63
2022-09-02T09:34:11.273Z,48.13
2022-09-02T09:35:11.262Z,49.83
2022-09-02T09:36:13.614Z,48.31
2022-09-02T09:37:11.232Z,47.91
2022-09-02T09:38:11.232Z,48.01
2022-09-02T09:39:11.211Z,48.19
2022-09-02T09:40:11.253Z,46.99
2022-09-02T09:41:11.202Z,49.85
2022-09-02T09:42:11.188Z,48.76
2022-09-02T09:43:14.476Z,49.33
2022-09-02T09:44:11.141Z,47.22
2022-09-02T09:45:11.138Z,45.23
2022-09-02T09:46:11.210Z,46.33
2022-09-02T09:47:14.792Z,46.23
2022-09-02T09:48:12.092Z,46.70
2022-09-02T09:49:11.082Z,45.79
2022-09-02T09:50:11.077Z,45.39
2022-09-02T09:51:11.079Z,44.29
2022-09-02T09:52:11.040Z,43.92
2022-09-02T09:53:11.033Z,45.21
2022-09-02T09:54:11.022Z,45.23
2022-09-02T09:55:12.548Z,45.33
2022-09-02T09:56:11.011Z,46.13
2022-09-02T09:57:10.988Z,44.14
2022-09-02T09:58:10.967Z,45.75
2022-09-02T09:59:10.980Z,45.95
2022-09-02T10:00:10.953Z,46.37
2022-09-02T10:01:11.023Z,46.67
2022-09-02T10:02:10.973Z,47.47
2022-09-02T10:03:10.910Z,47.77
2022-09-02T10:04:42.301Z,46.67
2022-09-02T10:05:11.894Z,46.75
2022-09-02T10:06:10.971Z,46.35
2022-09-02T10:07:10.928Z,46.15
2022-09-02T10:08:15.417Z,47.42
2022-09-02T10:09:10.930Z,46.42
2022-09-02T10:10:10.890Z,45.93
2022-09-02T10:11:10.810Z,44.71
2022-09-02T10:12:10.787Z,44.32
2022-09-02T10:13:10.803Z,45.11
2022-09-02T10:14:10.780Z,44.02
2022-09-02T10:15:12.706Z,44.70
2022-09-02T10:16:10.783Z,43.80
2022-09-02T10:17:10.732Z,43.50
2022-09-02T10:18:10.709Z,45.51
2022-09-02T10:19:10.699Z,45.09
2022-09-02T10:20:10.689Z,45.19
2022-09-02T10:21:15.362Z,44.59
2022-09-02T10:22:11.659Z,44.40
2022-09-02T10:23:10.649Z,45.07
2022-09-02T10:24:10.629Z,43.68
2022-09-02T10:25:10.621Z,44.18
2022-09-02T10:26:10.621Z,44.77
2022-09-02T10:27:10.611Z,44.18
2022-09-02T10:28:10.590Z,43.85
2022-09-02T10:29:10.582Z,44.35
2022-09-02T10:30:10.559Z,43.85
2022-09-02T10:31:10.598Z,43.93
2022-09-02T10:32:10.533Z,42.94
2022-09-02T10:33:10.522Z,42.85
2022-09-02T10:34:10.509Z,42.85
2022-09-02T10:35:10.511Z,43.93
2022-09-02T10:36:15.441Z,43.64
2022-09-02T10:37:11.487Z,41.75
2022-09-02T10:38:10.460Z,41.66
2022-09-02T10:39:10.449Z,41.46
2022-09-02T10:40:10.477Z,41.97
2022-09-02T10:41:10.441Z,41.38
2022-09-02T10:42:10.400Z,42.29
2022-09-02T10:43:10.397Z,42.29
2022-09-02T10:44:10.381Z,42.79
2022-09-02T10:45:10.376Z,42.01
2022-09-02T10:46:10.358Z,42.61
2022-09-02T10:47:10.351Z,41.71
2022-09-02T10:48:10.329Z,42.41
2022-09-02T10:49:10.329Z,41.82
2022-09-02T10:50:10.310Z,42.83
2022-09-02T10:51:10.309Z,43.42
2022-09-02T10:52:10.294Z,43.72
2022-09-02T10:53:10.271Z,43.23
2022-09-02T10:54:10.467Z,43.35
2022-09-02T10:55:10.249Z,44.14
2022-09-02T10:56:10.238Z,44.14
2022-09-02T10:57:10.218Z,45.23
2022-09-02T10:58:10.217Z,44.84
2022-09-02T10:59:10.200Z,44.54
2022-09-02T11:00:10.178Z,44.04
2022-09-02T11:01:10.270Z,44.64
2022-09-02T11:02:10.161Z,45.14
2022-09-02T11:03:10.170Z,45.33
2022-09-02T11:04:10.128Z,44.22
2022-09-02T11:05:10.133Z,45.41
2022-09-02T11:06:10.113Z,45.11
2022-09-02T11:07:10.090Z,46.08
2022-09-02T11:08:10.078Z,44.70
2022-09-02T11:09:10.058Z,44.29
2022-09-02T11:10:10.050Z,44.00
2022-09-02T11:11:10.048Z,44.89
2022-09-02T11:12:10.025Z,44.27
2022-09-02T11:13:10.020Z,43.68
2022-09-02T11:14:09.999Z,42.99
2022-09-02T11:15:10.990Z,43.58
2022-09-02T11:17:13.331Z,43.28
2022-09-02T11:18:09.982Z,41.50
2022-09-02T11:19:09.940Z,41.42
2022-09-02T11:20:09.933Z,40.03
2022-09-02T11:21:09.928Z,42.99
2022-09-02T11:22:09.900Z,40.41
2022-09-02T11:23:09.890Z,39.81
2022-09-02T11:24:09.868Z,40.41
2022-09-02T11:25:09.872Z,40.50
2022-09-02T11:26:09.858Z,40.19
2022-09-02T11:27:25.785Z,41.58
2022-09-02T11:28:10.818Z,38.60
2022-09-02T11:29:09.818Z,39.19
2022-09-02T11:30:09.797Z,37.21
2022-09-02T11:31:10.756Z,36.41
2022-09-02T11:32:09.768Z,36.61
2022-09-02T11:33:09.748Z,34.63
2022-09-02T11:34:09.741Z,37.90
2022-09-02T11:35:09.729Z,39.25
2022-09-02T11:36:09.744Z,35.47
2022-09-02T11:37:10.867Z,35.47
2022-09-02T11:38:09.696Z,35.35
2022-09-02T11:39:09.681Z,34.94
2022-09-02T11:40:33.230Z,34.55
2022-09-02T11:42:10.746Z,34.31
2022-09-02T11:43:09.638Z,33.52
2022-09-02T11:44:09.616Z,32.43
2022-09-02T11:45:09.638Z,32.14
2022-09-02T11:46:09.622Z,33.72
2022-09-02T11:47:09.579Z,34.99
2022-09-02T11:48:09.559Z,33.98
2022-09-02T11:49:09.561Z,31.62
2022-09-02T11:50:09.545Z,31.51
2022-09-02T11:51:09.565Z,31.40
2022-09-02T11:52:09.508Z,31.70
2022-09-02T11:53:09.499Z,32.07
2022-09-02T11:54:09.480Z,30.89
2022-09-02T11:55:09.478Z,31.37
2022-09-02T11:56:09.475Z,32.73
2022-09-02T11:57:09.456Z,32.03
2022-09-02T11:58:09.438Z,31.23
2022-09-02T11:59:09.419Z,30.24
2022-09-02T12:00:09.408Z,30.15
2022-09-02T12:01:13.802Z,32.29
2022-09-02T12:02:09.386Z,30.43
2022-09-02T12:03:28.565Z,31.42
2022-09-02T12:05:10.561Z,31.65
2022-09-02T12:06:09.476Z,31.16
2022-09-02T12:07:10.392Z,29.79
2022-09-02T12:08:09.299Z,31.37
2022-09-02T12:09:09.297Z,31.27
2022-09-02T12:10:09.278Z,31.76
2022-09-02T12:11:09.281Z,30.68
2022-09-02T12:12:09.258Z,30.07
2022-09-02T12:13:09.811Z,30.75
2022-09-02T12:14:09.229Z,32.11
2022-09-02T12:15:09.227Z,30.04
2022-09-02T12:16:09.260Z,30.32
2022-09-02T12:17:09.197Z,28.95
2022-09-02T12:18:09.187Z,27.86
2022-09-02T12:19:09.168Z,29.05
2022-09-02T12:20:09.159Z,28.65
2022-09-02T12:21:16.438Z,28.86
2022-09-02T12:22:10.176Z,32.13
2022-09-02T12:23:09.119Z,31.62
2022-09-02T12:24:09.108Z,29.44
2022-09-02T12:25:09.088Z,31.60
2022-09-02T12:26:11.941Z,32.98
2022-09-02T12:27:10.070Z,31.49
2022-09-02T12:28:09.052Z,29.13
2022-09-02T12:29:09.057Z,30.91
2022-09-02T12:30:09.066Z,29.24
2022-09-02T12:31:09.076Z,29.14
2022-09-02T12:32:09.009Z,29.35
2022-09-02T12:33:09.006Z,32.20
2022-09-02T12:34:08.979Z,28.66
2022-09-02T12:35:08.969Z,29.37
2022-09-02T12:36:08.969Z,29.66
2022-09-02T12:37:08.946Z,29.96
2022-09-02T12:38:08.946Z,30.57
2022-09-02T12:39:09.970Z,31.95
2022-09-02T12:40:09.765Z,33.33
2022-09-02T12:41:12.314Z,30.37
2022-09-02T12:42:08.879Z,31.07
2022-09-02T12:43:08.868Z,33.23
2022-09-02T12:44:08.858Z,30.96
2022-09-02T12:45:08.848Z,33.11
2022-09-02T12:46:08.885Z,29.86
2022-09-02T12:47:08.822Z,30.47
2022-09-02T12:48:08.808Z,32.35
2022-09-02T12:49:08.810Z,33.84
2022-09-02T12:50:08.831Z,31.27
2022-09-02T12:51:08.789Z,32.18
2022-09-02T12:52:08.758Z,32.67
2022-09-02T12:53:08.748Z,32.56
2022-09-02T12:54:08.738Z,32.16
2022-09-02T12:55:08.724Z,29.60